Time;durP1;ratioP1;P1;durP2;ratioP2;P2;SDS_P1;SDS_P2;PMS_P1;PMS_P2;Temp;Humidity;BMP_temperature;BMP_pressure;BME280_temperature;BME280_humidity;BME280_pressure;Samples;Min_cycle;Max_cycle;Signal;HPM_P1;HPM_P2
2023/05/30 00:00:46;;;;;;;9.83;3.50;;;;;;;18.12;97.02;99848.56;6193127;28;20051;-70
2023/05/30 00:03:48;;;;;;;4.70;2.97;;;;;;;18.18;96.86;99860.34;6193085;28;20065;-71
2023/05/30 00:06:49;;;;;;;8.25;3.60;;;;;;;18.17;95.68;99856.03;6293668;28;20046;-71
2023/05/30 00:09:50;;;;;;;6.23;3.30;;;;;;;18.17;96.42;99853.41;6193103;28;20479;-71
2023/05/30 00:12:51;;;;;;;3.93;2.70;;;;;;;18.13;94.68;99851.03;6192846;28;20055;-72
2023/05/30 00:15:52;;;;;;;7.03;3.28;;;;;;;18.15;96.02;99850.06;6193042;28;20073;-71
2023/05/30 00:18:53;;;;;;;7.70;3.40;;;;;;;18.15;97.05;99853.53;6192876;28;20080;-71
2023/05/30 00:21:54;;;;;;;6.63;3.78;;;;;;;18.09;97.13;99854.94;6191898;28;20050;-71
2023/05/30 00:24:59;;;;;;;5.07;2.80;;;;;;;18.07;96.80;99854.28;6192810;28;20089;-71
2023/05/30 00:28:00;;;;;;;4.70;2.70;;;;;;;18.02;98.79;99853.88;6192771;28;20046;-70
2023/05/30 00:31:01;;;;;;;5.60;3.30;;;;;;;17.96;98.99;99857.13;6192678;28;20468;-70
2023/05/30 00:34:02;;;;;;;5.13;3.27;;;;;;;17.92;98.98;99842.53;6192895;28;20055;-70
2023/05/30 00:37:05;;;;;;;5.88;3.30;;;;;;;17.91;99.66;99854.91;6194568;28;20191;-69
2023/05/30 00:40:06;;;;;;;4.57;2.97;;;;;;;17.89;99.87;99850.75;6196702;28;20136;-70
2023/05/30 00:43:07;;;;;;;4.93;3.20;;;;;;;17.80;99.80;99852.41;6195660;28;20046;-70
2023/05/30 00:46:10;;;;;;;5.27;3.47;;;;;;;17.79;98.27;99857.84;6195187;28;20062;-69
2023/05/30 00:49:11;;;;;;;4.75;3.17;;;;;;;17.75;96.61;99859.09;6196523;28;20403;-70
2023/05/30 00:52:12;;;;;;;8.87;3.60;;;;;;;17.75;96.37;99859.97;6297909;28;20070;-71
2023/05/30 00:55:18;;;;;;;4.50;3.10;;;;;;;17.76;95.28;99860.78;6196768;28;20133;-70
2023/05/30 00:58:21;;;;;;;6.20;3.10;;;;;;;17.79;94.83;99865.75;6297859;28;20046;-70
2023/05/30 01:01:23;;;;;;;6.60;3.45;;;;;;;17.74;94.34;99858.28;6196433;28;20054;-71
2023/05/30 01:04:24;;;;;;;7.18;3.20;;;;;;;17.74;94.34;99866.19;6297514;28;20394;-70
2023/05/30 01:07:27;;;;;;;4.00;2.87;;;;;;;17.71;96.56;99862.03;6196182;28;20051;-70
2023/05/30 01:10:30;;;;;;;5.82;3.58;;;;;;;17.66;93.40;99860.81;6196096;28;20111;-70
2023/05/30 01:14:00;;;;;;;6.30;3.30;;;;;;;17.67;93.76;99858.03;6195156;28;20054;-70
2023/05/30 01:17:24;;;;;;;5.38;3.20;;;;;;;17.64;93.42;99863.56;6203278;28;20053;-70
2023/05/30 01:20:32;;;;;;;5.78;3.22;;;;;;;17.65;93.18;99854.69;6226017;28;20051;-71
2023/05/30 01:24:06;;;;;;;7.70;3.75;;;;;;;17.62;93.63;99859.44;6194767;28;20410;-69
2023/05/30 01:27:15;;;;;;;4.93;3.17;;;;;;;17.50;90.67;99856.13;6195808;28;20433;-70
2023/05/30 01:30:19;;;;;;;6.55;3.30;;;;;;;17.39;89.03;99851.03;6297402;28;20058;-70
2023/05/30 01:33:21;;;;;;;4.78;3.13;;;;;;;17.37;91.78;99855.63;6195820;28;20065;-70
2023/05/30 01:36:22;;;;;;;9.88;3.42;;;;;;;17.36;91.26;99859.22;6195631;28;20133;-70
2023/05/30 01:39:23;;;;;;;7.25;3.40;;;;;;;17.29;90.46;99856.31;6195798;28;20061;-70
2023/05/30 01:42:27;;;;;;;5.88;3.45;;;;;;;17.22;88.72;99858.69;6195604;28;20050;-70
2023/05/30 01:45:47;;;;;;;7.75;3.33;;;;;;;17.21;90.68;99857.00;6195504;28;20054;-70
2023/05/30 01:49:26;;;;;;;4.85;2.92;;;;;;;17.22;88.04;99863.13;6195242;28;20062;-70
2023/05/30 01:52:38;;;;;;;5.25;3.10;;;;;;;17.14;89.59;99855.94;6296527;28;20120;-70
2023/05/30 01:55:41;;;;;;;4.80;3.30;;;;;;;17.16;89.97;99861.06;6195566;28;20054;-69
2023/05/30 01:58:44;;;;;;;4.43;2.90;;;;;;;17.06;86.72;99863.69;6195291;28;20050;-70
2023/05/30 02:01:45;;;;;;;4.85;2.90;;;;;;;17.07;85.67;99862.72;6195633;28;20108;-70
2023/05/30 02:04:46;;;;;;;5.55;3.10;;;;;;;17.08;86.76;99862.59;6195215;28;20050;-71
2023/05/30 02:07:47;;;;;;;6.78;3.30;;;;;;;17.05;86.79;99865.50;6193815;28;20129;-71
2023/05/30 02:10:50;;;;;;;5.20;3.00;;;;;;;17.00;84.33;99866.91;6195228;28;20498;-71
2023/05/30 02:13:50;;;;;;;7.10;3.13;;;;;;;17.10;84.36;99865.91;6295942;28;20130;-70
2023/05/30 02:16:51;;;;;;;5.47;3.42;;;;;;;17.11;84.70;99864.09;6296124;28;20054;-70
2023/05/30 02:19:54;;;;;;;5.97;3.10;;;;;;;17.02;83.62;99863.13;6295975;28;20054;-71
2023/05/30 02:22:55;;;;;;;4.63;2.92;;;;;;;17.10;82.24;99870.34;6195062;28;20062;-70
2023/05/30 02:25:56;;;;;;;5.38;2.67;;;;;;;16.97;82.85;99872.47;6295725;28;20051;-71
2023/05/30 02:28:56;;;;;;;6.43;3.25;;;;;;;16.95;80.81;99866.50;6194813;28;20087;-71
2023/05/30 02:31:57;;;;;;;4.55;3.08;;;;;;;17.01;82.32;99877.31;6193494;28;20073;-71
2023/05/30 02:34:58;;;;;;;5.78;3.13;;;;;;;16.98;81.80;99871.47;6194822;28;20050;-70
2023/05/30 02:37:58;;;;;;;11.05;3.05;;;;;;;16.96;82.91;99876.88;6194392;28;20458;-70
2023/05/30 02:40:59;;;;;;;4.63;3.15;;;;;;;16.86;81.95;99874.25;6194833;28;20506;-69
2023/05/30 02:44:00;;;;;;;6.43;3.08;;;;;;;16.92;82.47;99881.63;6295433;28;20141;-70
2023/05/30 02:47:01;;;;;;;3.50;2.67;;;;;;;16.94;83.55;99878.00;6194107;28;20145;-70
2023/05/30 02:50:02;;;;;;;4.35;2.83;;;;;;;16.86;82.35;99871.63;6295444;28;20056;-70
2023/05/30 02:53:02;;;;;;;6.05;2.65;;;;;;;16.87;81.84;99878.56;6193028;28;20103;-70
2023/05/30 02:56:03;;;;;;;5.53;2.85;;;;;;;16.79;81.29;99877.56;6295275;28;20054;-71
2023/05/30 02:59:04;;;;;;;4.30;2.95;;;;;;;16.77;80.38;99877.69;6193255;28;20050;-70
2023/05/30 03:02:05;;;;;;;6.80;3.53;;;;;;;16.83;81.12;99878.97;6193253;28;20137;-70
2023/05/30 03:05:07;;;;;;;5.15;3.03;;;;;;;16.81;81.74;99879.09;6194159;28;20183;-70
2023/05/30 03:08:07;;;;;;;;;;;;;;;16.83;81.34;99881.59;6295227;28;20442;-70
2023/05/30 03:11:08;;;;;;;7.80;2.97;;;;;;;16.80;80.15;99887.09;6192941;28;19922;-71
2023/05/30 03:14:11;;;;;;;5.55;2.90;;;;;;;16.83;80.73;99884.25;6193999;28;20051;-71
2023/05/30 03:17:13;;;;;;;4.72;3.08;;;;;;;16.88;79.85;99882.88;6192805;28;20053;-71
2023/05/30 03:20:15;;;;;;;4.10;2.85;;;;;;;16.82;78.47;99890.47;6294332;28;20155;-71
2023/05/30 03:23:16;;;;;;;9.73;3.13;;;;;;;16.87;79.64;99893.53;6193707;28;20593;-71
2023/05/30 03:26:17;;;;;;;4.50;3.13;;;;;;;16.87;79.33;99890.91;6193728;28;20057;-71
2023/05/30 03:29:18;;;;;;;5.47;2.80;;;;;;;16.91;79.97;99893.09;6193525;28;20050;-71
2023/05/30 03:32:19;;;;;;;8.80;3.47;;;;;;;16.94;78.47;99899.06;6192560;28;20076;-71
2023/05/30 03:35:20;;;;;;;5.32;2.80;;;;;;;16.91;77.32;99895.75;6193842;28;20054;-71
2023/05/30 03:38:21;;;;;;;7.18;3.20;;;;;;;16.81;75.13;99899.34;6294352;28;20403;-71
2023/05/30 03:41:22;;;;;;;6.03;3.28;;;;;;;16.96;74.21;99899.78;6192478;28;20061;-71
2023/05/30 03:44:23;;;;;;;10.80;3.50;;;;;;;16.96;75.60;99891.88;6294356;28;20494;-71
2023/05/30 03:47:24;;;;;;;6.63;3.00;;;;;;;16.98;75.23;99888.13;6193016;28;20053;-70
2023/05/30 03:50:24;;;;;;;3.67;2.58;;;;;;;16.99;75.11;99899.50;6294342;28;20482;-70
2023/05/30 03:53:25;;;;;;;6.60;3.35;;;;;;;17.00;75.40;99898.53;6193281;28;20050;-70
2023/05/30 03:56:28;;;;;;;4.82;2.60;;;;;;;17.05;75.46;99898.97;6193107;28;20457;-70
2023/05/30 03:59:29;;;;;;;4.03;2.95;;;;;;;17.05;75.46;99901.59;6191895;28;20137;-70
2023/05/30 04:02:30;;;;;;;6.20;3.05;;;;;;;17.10;74.27;99900.19;6294107;28;20052;-70
2023/05/30 04:05:31;;;;;;;4.53;2.75;;;;;;;17.09;74.08;99902.94;6293602;28;20288;-70
2023/05/30 04:08:31;;;;;;;6.13;2.85;;;;;;;17.25;73.79;99911.13;6193036;28;20137;-71
2023/05/30 04:11:34;;;;;;;4.35;2.90;;;;;;;17.20;73.67;99902.00;6196818;28;20050;-70
2023/05/30 04:14:35;;;;;;;8.23;2.90;;;;;;;17.30;72.66;99900.19;6298581;28;20145;-71
2023/05/30 04:17:36;;;;;;;4.35;2.78;;;;;;;17.36;73.99;99906.69;6197349;28;20046;-71
2023/05/30 04:20:37;;;;;;;3.72;2.80;;;;;;;17.42;74.04;99909.59;6197174;28;20126;-71
2023/05/30 04:23:41;;;;;;;4.25;2.83;;;;;;;17.39;74.44;99901.97;6209222;28;20054;-72
2023/05/30 04:26:42;;;;;;;6.00;3.20;;;;;;;17.37;72.61;99913.63;6324558;28;20079;-71
2023/05/30 04:29:43;;;;;;;6.80;2.65;;;;;;;17.42;72.74;99909.59;6323678;28;20048;-71
2023/05/30 04:32:44;;;;;;;7.95;3.10;;;;;;;17.43;72.80;99907.78;6323337;28;20044;-70
2023/05/30 04:35:47;;;;;;;6.45;3.20;;;;;;;17.47;73.41;99912.63;6324857;28;20335;-71
2023/05/30 04:38:49;;;;;;;5.20;2.60;;;;;;;17.61;73.74;99911.38;6324596;28;20080;-70
2023/05/30 04:41:51;;;;;;;;;;;;;;;17.64;73.29;99918.97;6324939;28;20044;-71
2023/05/30 04:44:54;;;;;;;9.85;2.58;;;;;;;17.79;73.97;99915.88;6323070;28;20336;-71
2023/05/30 04:47:54;;;;;;;5.18;3.10;;;;;;;17.82;75.62;99912.97;6322777;28;20134;-71
2023/05/30 04:50:56;;;;;;;9.13;3.28;;;;;;;17.97;74.61;99918.66;6324181;28;20092;-71
2023/05/30 04:53:58;;;;;;;9.15;3.40;;;;;;;18.10;76.16;99927.09;6324027;28;20055;-71
2023/05/30 04:56:59;;;;;;;6.20;3.08;;;;;;;18.16;73.13;99928.28;6322884;28;20059;-70
2023/05/30 04:59:59;;;;;;;6.00;3.90;;;;;;;18.27;75.60;99928.94;6322838;28;20491;-70
2023/05/30 05:03:00;;;;;;;3.72;2.67;;;;;;;18.26;74.20;99923.81;6324101;28;20487;-70
2023/05/30 05:06:01;;;;;;;9.80;3.15;;;;;;;18.42;74.42;99931.94;6323880;28;20130;-71
2023/05/30 05:09:04;;;;;;;5.68;3.13;;;;;;;18.31;75.28;99932.13;6322422;28;20427;-70
2023/05/30 05:12:06;;;;;;;3.50;2.30;;;;;;;18.45;75.50;99931.66;6322627;28;20507;-71
2023/05/30 05:15:09;;;;;;;3.70;2.83;;;;;;;18.46;75.08;99935.94;6323620;28;20488;-70
2023/05/30 05:18:12;;;;;;;4.15;2.90;;;;;;;18.39;75.52;99934.03;6323571;28;20048;-70
2023/05/30 05:21:14;;;;;;;7.57;3.00;;;;;;;18.45;76.39;99939.56;6322425;28;20495;-70
2023/05/30 05:24:14;;;;;;;6.65;2.88;;;;;;;18.47;76.35;99948.19;6322367;28;20127;-71
2023/05/30 05:27:15;;;;;;;6.33;2.90;;;;;;;18.39;76.14;99945.44;6322022;28;20044;-70
2023/05/30 05:30:16;;;;;;;4.78;2.88;;;;;;;18.51;75.72;99948.69;6322135;28;20453;-70
2023/05/30 05:33:17;;;;;;;5.45;2.95;;;;;;;18.57;77.35;99956.03;6323206;28;20047;-70
2023/05/30 05:36:19;;;;;;;6.28;3.10;;;;;;;18.68;74.69;99952.38;6323459;28;20539;-71
2023/05/30 05:39:20;;;;;;;6.15;2.95;;;;;;;18.75;75.01;99957.91;6323462;28;20044;-71
2023/05/30 05:42:20;;;;;;;5.20;3.00;;;;;;;18.84;73.72;99954.38;6323206;28;20059;-71
2023/05/30 05:45:21;;;;;;;5.25;3.20;;;;;;;18.93;75.50;99951.66;6323150;28;20048;-71
2023/05/30 05:48:22;;;;;;;3.65;2.50;;;;;;;18.93;73.17;99954.31;6321439;28;20044;-71
2023/05/30 05:51:23;;;;;;;4.97;2.95;;;;;;;18.95;75.47;99951.53;6322877;28;20511;-71
2023/05/30 05:54:23;;;;;;;4.95;2.90;;;;;;;18.81;73.84;99949.41;6322795;28;20068;-71
2023/05/30 05:57:26;;;;;;;4.45;2.78;;;;;;;19.02;74.42;99962.34;6322812;28;20040;-71
2023/05/30 06:00:27;;;;;;;8.77;2.72;;;;;;;19.02;75.23;99954.41;6322470;28;20052;-70
2023/05/30 06:03:28;;;;;;;4.60;2.87;;;;;;;19.11;73.59;99953.50;6321568;28;20063;-70
2023/05/30 06:06:29;;;;;;;6.80;2.87;;;;;;;19.18;75.69;99951.09;6320950;28;20139;-71
2023/05/30 06:09:31;;;;;;;6.97;3.13;;;;;;;19.37;76.69;99958.03;6320522;28;20507;-71
2023/05/30 06:12:32;;;;;;;4.53;2.65;;;;;;;19.40;76.01;99947.16;6317531;28;20055;-71
2023/05/30 06:15:33;;;;;;;5.27;2.87;;;;;;;19.26;74.00;99957.28;6319702;28;20048;-71
2023/05/30 06:18:33;;;;;;;5.50;2.87;;;;;;;19.47;75.68;99945.53;6322179;28;20047;-71
2023/05/30 06:21:35;;;;;;;6.57;3.57;;;;;;;19.58;75.95;99957.69;6322021;28;20055;-71
2023/05/30 06:24:36;;;;;;;6.45;3.33;;;;;;;19.56;72.83;99963.16;6322253;28;20101;-71
2023/05/30 06:27:37;;;;;;;11.00;3.35;;;;;;;19.53;73.81;99948.38;6321655;28;20048;-71
2023/05/30 06:30:38;;;;;;;7.07;3.17;;;;;;;19.45;72.57;99960.72;6321909;28;20121;-71
2023/05/30 06:33:39;;;;;;;4.53;2.70;;;;;;;19.36;72.35;99961.66;6321934;28;20487;-71
2023/05/30 06:36:40;;;;;;;8.70;3.43;;;;;;;19.23;71.60;99968.16;6321625;28;20142;-70
2023/05/30 06:39:41;;;;;;;5.17;2.73;;;;;;;19.41;72.70;99969.97;6320448;28;20138;-71
2023/05/30 06:42:44;;;;;;;6.53;3.20;;;;;;;19.28;70.90;99973.81;6320465;28;20136;-70
2023/05/30 06:45:44;;;;;;;8.35;2.78;;;;;;;19.34;71.79;99972.38;6320429;28;20071;-70
2023/05/30 06:48:46;;;;;;;9.10;2.73;;;;;;;19.47;73.68;99978.09;6320104;28;20093;-71
2023/05/30 06:51:46;;;;;;;3.80;2.78;;;;;;;19.62;71.16;99972.25;6321321;28;20476;-71
2023/05/30 06:54:47;;;;;;;4.07;2.90;;;;;;;19.50;71.65;99982.28;6321387;28;20050;-71
2023/05/30 06:57:53;;;;;;;6.87;3.40;;;;;;;19.68;72.43;99974.28;6321556;28;20487;-71
2023/05/30 07:00:54;;;;;;;8.00;3.47;;;;;;;19.99;71.27;99973.88;6319771;28;20539;-71
2023/05/30 07:03:55;;;;;;;4.90;3.07;;;;;;;20.05;71.16;99962.66;6319929;28;20048;-71
2023/05/30 07:06:57;;;;;;;5.63;2.93;;;;;;;20.26;71.60;99967.56;6321217;28;20533;-71
2023/05/30 07:09:58;;;;;;;8.25;3.55;;;;;;;20.42;73.53;99972.09;6320959;28;20541;-71
2023/05/30 07:12:58;;;;;;;4.57;2.70;;;;;;;20.12;70.99;99974.28;6321513;28;20059;-70
2023/05/30 07:16:01;;;;;;;8.20;3.20;;;;;;;20.44;71.91;99978.06;6321153;28;20044;-70
2023/05/30 07:19:02;;;;;;;5.68;2.55;;;;;;;20.47;70.88;99975.13;6320981;28;20094;-72
2023/05/30 07:22:05;;;;;;;6.57;3.37;;;;;;;20.46;72.29;99966.31;6319511;28;20079;-71
2023/05/30 07:25:07;;;;;;;6.07;3.00;;;;;;;20.70;72.17;99978.03;6319750;28;20048;-71
2023/05/30 07:28:07;;;;;;;5.25;3.03;;;;;;;20.82;71.49;99967.97;6320661;28;20056;-70
2023/05/30 07:31:11;;;;;;;6.93;3.80;;;;;;;20.90;70.69;99970.66;6319278;28;20048;-71
2023/05/30 07:34:11;;;;;;;6.53;3.67;;;;;;;20.89;68.90;99966.31;6320601;28;20079;-71
2023/05/30 07:37:12;;;;;;;5.37;3.13;;;;;;;21.04;68.98;99969.97;6319540;28;20070;-70
2023/05/30 07:40:17;;;;;;;6.57;3.73;;;;;;;21.31;67.04;99974.19;6320332;28;20056;-70
2023/05/30 07:43:20;;;;;;;4.35;2.90;;;;;;;21.57;65.22;99969.72;6319210;28;20048;-70
2023/05/30 07:46:22;;;;;;;5.75;3.20;;;;;;;21.68;65.83;99972.88;6318668;28;20105;-70
2023/05/30 07:49:25;;;;;;;6.13;3.40;;;;;;;22.41;62.51;99975.56;6320189;28;20048;-70
2023/05/30 07:52:26;;;;;;;5.85;3.28;;;;;;;22.83;60.88;99983.13;6319150;28;20056;-70
2023/05/30 07:55:27;;;;;;;11.97;3.27;;;;;;;22.93;59.63;99990.91;6319276;28;20075;-70
2023/05/30 07:58:27;;;;;;;3.97;2.87;;;;;;;22.78;60.77;99990.00;6320405;28;20381;-71
2023/05/30 08:01:28;;;;;;;5.13;3.20;;;;;;;22.70;61.03;99989.03;6319037;28;20135;-71
2023/05/30 08:04:29;;;;;;;4.87;2.93;;;;;;;23.00;60.73;99993.69;6319210;28;20070;-71
2023/05/30 08:07:32;;;;;;;6.73;3.43;;;;;;;22.95;58.85;99994.22;6318890;28;20133;-72
2023/05/30 08:10:33;;;;;;;5.03;2.78;;;;;;;23.08;58.49;99989.19;6318998;28;20052;-72
2023/05/30 08:13:34;;;;;;;6.65;3.28;;;;;;;23.36;58.71;99982.50;6318853;28;20071;-71
2023/05/30 08:16:34;;;;;;;10.23;3.13;;;;;;;23.69;59.34;99986.53;6320057;28;20488;-71
2023/05/30 08:19:35;;;;;;;6.50;3.50;;;;;;;23.78;56.91;99987.31;6318913;28;20135;-71
2023/05/30 08:22:36;;;;;;;7.33;3.20;;;;;;;23.67;56.43;99987.72;6318684;28;20056;-71
2023/05/30 08:25:42;;;;;;;6.55;2.60;;;;;;;24.43;55.68;99988.44;6318849;28;20044;-70
2023/05/30 08:28:43;;;;;;;6.95;3.22;;;;;;;24.86;54.49;99982.44;6318607;28;20040;-71
2023/05/30 08:31:43;;;;;;;6.33;2.67;;;;;;;24.75;54.66;99986.41;6318798;28;20093;-71
2023/05/30 08:34:46;;;;;;;6.20;3.00;;;;;;;24.48;55.19;99977.22;6318639;28;20052;-71
2023/05/30 08:37:49;;;;;;;5.63;2.80;;;;;;;25.24;51.93;99983.03;6318526;28;20531;-70
2023/05/30 08:40:51;;;;;;;6.07;2.90;;;;;;;25.30;53.79;99981.47;6319988;28;20044;-70
2023/05/30 08:43:52;;;;;;;4.80;3.00;;;;;;;25.00;52.42;99978.03;6318509;28;20071;-71
2023/05/30 08:46:53;;;;;;;3.40;2.10;;;;;;;25.08;50.47;99973.44;6318151;28;20496;-72
2023/05/30 08:49:54;;;;;;;6.25;2.90;;;;;;;25.91;53.16;99983.63;6318662;28;20277;-71
2023/05/30 08:53:06;;;;;;;4.07;2.73;;;;;;;26.06;50.72;99981.66;6319674;28;20094;-71
2023/05/30 08:56:11;;;;;;;;;;;;;;;26.39;47.12;99982.88;6319571;28;20048;-71
2023/05/30 08:59:13;;;;;;;7.90;2.85;;;;;;;26.70;47.61;99985.06;6323073;28;19927;-71
2023/05/30 09:02:14;;;;;;;3.40;2.42;;;;;;;27.24;45.81;99983.38;6323949;28;20044;-71
2023/05/30 09:05:18;;;;;;;6.05;2.85;;;;;;;26.76;45.19;99978.91;6324334;28;20142;-72
2023/05/30 09:08:22;;;;;;;4.72;2.72;;;;;;;26.82;45.58;99978.13;6322668;28;20047;-72
2023/05/30 09:11:23;;;;;;;5.40;2.92;;;;;;;27.30;43.36;99977.19;6323956;28;20101;-71
2023/05/30 09:14:24;;;;;;;4.70;2.30;;;;;;;27.57;44.65;99975.34;6323755;28;20077;-72
2023/05/30 09:17:25;;;;;;;5.25;2.92;;;;;;;27.73;43.37;99982.16;6322800;28;20300;-71
2023/05/30 09:20:28;;;;;;;8.95;2.25;;;;;;;28.19;43.55;99975.91;6323598;28;20047;-72
2023/05/30 09:23:29;;;;;;;5.68;3.15;;;;;;;28.18;41.88;99970.75;6323574;28;20496;-71
2023/05/30 09:26:33;;;;;;;3.83;2.45;;;;;;;28.02;43.24;99972.84;6323474;28;20582;-72
2023/05/30 09:29:42;;;;;;;5.05;2.50;;;;;;;28.07;46.25;99974.91;6322222;28;20493;-71
2023/05/30 09:33:00;;;;;;;5.13;2.30;;;;;;;28.30;44.35;99966.38;6305284;28;20052;-72
2023/05/30 09:36:01;;;;;;;4.15;2.40;;;;;;;27.68;42.64;99974.72;6322266;28;20058;-71
2023/05/30 09:39:06;;;;;;;6.60;2.53;;;;;;;27.83;43.80;99974.50;6323747;28;20050;-72
2023/05/30 09:42:11;;;;;;;3.55;2.50;;;;;;;27.65;42.32;99968.97;6321992;28;20088;-71
2023/05/30 09:45:14;;;;;;;6.07;2.45;;;;;;;27.17;41.97;99966.44;6321825;28;20055;-71
2023/05/30 09:48:17;;;;;;;4.53;2.60;;;;;;;27.55;43.61;99969.41;6323663;28;20404;-71
2023/05/30 09:51:25;;;;;;;7.45;2.83;;;;;;;27.87;41.41;99969.59;6321808;28;20044;-70
2023/05/30 09:54:27;;;;;;;3.78;2.45;;;;;;;28.35;38.97;99971.91;6322965;28;20048;-71
2023/05/30 09:57:28;;;;;;;5.28;2.65;;;;;;;28.34;41.24;99963.06;6321673;28;20048;-71
2023/05/30 10:00:31;;;;;;;8.35;2.47;;;;;;;27.97;42.32;99963.81;6321502;28;20474;-71
2023/05/30 10:03:43;;;;;;;4.50;2.45;;;;;;;28.04;38.88;99968.09;6322653;28;20073;-71
2023/05/30 10:06:45;;;;;;;;;;;;;;;27.46;39.18;99976.78;6322617;28;20056;-71
2023/05/30 10:09:49;;;;;;;3.50;2.20;;;;;;;27.48;38.96;99974.72;6321290;28;19929;-71
2023/05/30 10:12:52;;;;;;;4.88;2.40;;;;;;;27.98;40.45;99963.56;6321136;28;20048;-71
2023/05/30 10:15:53;;;;;;;4.63;2.47;;;;;;;27.76;38.34;99965.66;6322480;28;20136;-72
2023/05/30 10:18:59;;;;;;;3.25;2.13;;;;;;;28.28;37.33;99963.91;6321059;28;20040;-71
2023/05/30 10:22:04;;;;;;;3.15;2.13;;;;;;;28.70;37.84;99955.50;6321079;28;20097;-71
2023/05/30 10:25:06;;;;;;;3.50;2.10;;;;;;;29.29;36.12;99961.56;6320889;28;20056;-73
2023/05/30 10:28:11;;;;;;;4.72;2.20;;;;;;;29.31;34.63;99956.78;6322207;28;20126;-72
2023/05/30 10:31:16;;;;;;;6.05;2.03;;;;;;;29.57;34.74;99962.97;6321832;28;20537;-73
2023/05/30 10:34:21;;;;;;;5.18;2.47;;;;;;;29.32;34.79;99961.09;6320813;28;20052;-72
2023/05/30 10:37:22;;;;;;;5.97;2.50;;;;;;;28.90;32.15;99963.44;6320610;28;20048;-72
2023/05/30 10:40:32;;;;;;;;;;;;;;;28.96;32.79;99965.25;6322683;28;20048;-71
2023/05/30 10:43:51;;;;;;;2.92;1.90;;;;;;;28.99;38.06;99953.25;6321590;28;20260;-71
2023/05/30 10:47:20;;;;;;;3.22;2.38;;;;;;;28.85;35.93;99952.53;6321103;28;20110;-71
2023/05/30 10:50:29;;;;;;;4.07;2.35;;;;;;;29.04;37.97;99951.56;6321520;28;20059;-71
2023/05/30 10:53:39;;;;;;;3.83;2.35;;;;;;;28.80;34.96;99955.03;6320349;28;20052;-72
2023/05/30 10:56:42;;;;;;;2.53;2.10;;;;;;;28.72;36.64;99951.56;6321281;28;20048;-71
2023/05/30 10:59:43;;;;;;;4.72;2.30;;;;;;;28.55;35.99;99947.72;6321410;28;20044;-71
2023/05/30 11:02:51;;;;;;;5.43;2.22;;;;;;;28.05;36.48;99944.81;6320149;28;20051;-71
2023/05/30 11:05:57;;;;;;;5.47;2.28;;;;;;;27.87;39.09;99965.03;6321336;28;20048;-71
2023/05/30 11:09:08;;;;;;;4.90;2.40;;;;;;;28.22;38.06;99948.66;6320983;28;20040;-71
2023/05/30 11:12:21;;;;;;;3.63;2.42;;;;;;;27.47;37.40;99943.63;6319982;28;20135;-71
2023/05/30 11:15:42;;;;;;;5.13;2.65;;;;;;;27.54;38.65;99944.44;6320928;28;20059;-72
2023/05/30 11:18:51;;;;;;;3.17;2.10;;;;;;;27.88;38.36;99939.06;6319528;28;20065;-71
2023/05/30 11:21:57;;;;;;;7.25;2.67;;;;;;;28.04;38.75;99941.28;6320757;28;20712;-71
2023/05/30 11:25:18;;;;;;;4.80;2.13;;;;;;;27.62;38.64;99942.59;6320774;28;20143;-71
2023/05/30 11:28:33;;;;;;;3.27;2.10;;;;;;;27.96;40.83;99938.00;6320868;28;20363;-72
2023/05/30 11:31:36;;;;;;;4.28;2.28;;;;;;;27.78;38.16;99930.59;6319352;28;20519;-72
2023/05/30 11:34:37;;;;;;;3.33;2.38;;;;;;;27.65;37.78;99934.94;6320456;28;20749;-72
2023/05/30 11:37:38;;;;;;;3.72;2.42;;;;;;;27.71;41.28;99938.66;6320564;28;20048;-71
2023/05/30 11:40:42;;;;;;;3.13;1.92;;;;;;;28.06;40.37;99930.34;6319583;28;20510;-71
2023/05/30 11:43:44;;;;;;;3.22;2.05;;;;;;;28.00;36.59;99918.59;6319477;28;20048;-71
2023/05/30 11:47:11;;;;;;;6.65;2.35;;;;;;;27.97;39.14;99926.25;6320215;28;20056;-71
2023/05/30 11:50:12;;;;;;;3.05;2.13;;;;;;;27.87;38.30;99921.34;6320454;28;20055;-72
2023/05/30 11:53:17;;;;;;;5.82;2.28;;;;;;;27.84;39.53;99924.38;6320909;28;20055;-72
2023/05/30 11:56:18;;;;;;;3.75;2.40;;;;;;;28.25;37.86;99918.75;6319214;28;20051;-71
2023/05/30 11:59:23;;;;;;;3.47;2.05;;;;;;;28.26;38.52;99911.50;6320284;28;20484;-71
2023/05/30 12:02:28;;;;;;;6.82;2.22;;;;;;;28.52;38.17;99915.97;6318979;28;20527;-72
2023/05/30 12:05:29;;;;;;;6.18;1.90;;;;;;;28.69;37.36;99921.66;6318701;28;20058;-72
2023/05/30 12:08:32;;;;;;;;;;;;;;;28.35;38.19;99907.53;6198785;28;20058;-71
2023/05/30 12:11:33;;;;;;;4.30;2.08;;;;;;;28.26;37.10;99911.50;6188673;28;19975;-71
2023/05/30 12:14:57;;;;;;;6.38;2.63;;;;;;;28.23;37.65;99912.78;6191919;28;20046;-71
2023/05/30 12:18:01;;;;;;;2.78;2.10;;;;;;;28.60;37.36;99913.03;6199092;28;20046;-71
2023/05/30 12:21:02;;;;;;;3.97;2.15;;;;;;;28.69;35.33;99902.84;6192803;28;20405;-72
2023/05/30 12:24:08;;;;;;;6.60;2.28;;;;;;;29.62;39.26;99912.06;6192654;28;20103;-71
2023/05/30 12:27:21;;;;;;;4.10;2.40;;;;;;;29.29;34.71;99905.94;6192919;28;20103;-71
2023/05/30 12:30:22;;;;;;;5.50;1.92;;;;;;;29.85;33.05;99895.31;6192283;28;20055;-71
2023/05/30 12:33:23;;;;;;;;;;;;;;;29.19;35.11;99910.19;6196296;28;20140;-71
2023/05/30 12:36:24;;;;;;;3.70;2.35;;;;;;;28.96;34.28;99908.88;6195711;28;19957;-72
2023/05/30 12:39:27;;;;;;;3.67;2.38;;;;;;;27.86;33.95;99898.19;6195761;28;20046;-71
2023/05/30 12:42:30;;;;;;;3.97;2.42;;;;;;;27.57;34.39;99903.00;6196830;28;20466;-72
2023/05/30 12:45:33;;;;;;;2.67;2.03;;;;;;;27.79;35.39;99897.41;6196620;28;20055;-71
2023/05/30 12:48:34;;;;;;;5.28;2.30;;;;;;;28.01;34.81;99901.50;6195516;28;20047;-71
2023/05/30 12:51:35;;;;;;;6.05;2.78;;;;;;;28.29;38.16;99892.28;6196668;28;20486;-71
2023/05/30 12:54:36;;;;;;;7.38;2.53;;;;;;;28.26;34.79;99884.69;6195449;28;20068;-71
2023/05/30 12:57:37;;;;;;;3.78;2.25;;;;;;;28.12;34.18;99876.69;6195336;28;20046;-72
2023/05/30 13:00:37;;;;;;;4.65;2.28;;;;;;;27.52;35.44;99884.06;6195456;28;20061;-71
2023/05/30 13:03:38;;;;;;;5.40;2.78;;;;;;;28.24;35.51;99890.25;6196369;28;20053;-71
2023/05/30 13:06:39;;;;;;;3.53;2.30;;;;;;;27.93;37.41;99889.13;6195458;28;20050;-71
2023/05/30 13:09:42;;;;;;;3.63;2.42;;;;;;;27.98;35.55;99876.94;6196166;28;20051;-71
2023/05/30 13:12:43;;;;;;;3.70;2.40;;;;;;;27.40;33.42;99896.44;6195203;28;20057;-72
2023/05/30 13:15:46;;;;;;;2.38;2.10;;;;;;;27.28;33.38;99897.06;6196046;28;20050;-71
2023/05/30 13:18:47;;;;;;;4.13;2.28;;;;;;;27.42;33.85;99889.00;6194964;28;20046;-71
2023/05/30 13:21:48;;;;;;;4.50;2.65;;;;;;;27.32;36.15;99892.94;6196053;28;20546;-71
2023/05/30 13:24:49;;;;;;;2.75;1.92;;;;;;;27.66;36.25;99880.31;6195857;28;20158;-71
2023/05/30 13:27:50;;;;;;;7.63;2.45;;;;;;;28.28;35.30;99879.94;6194708;28;20404;-71
2023/05/30 13:30:51;;;;;;;3.53;2.17;;;;;;;27.93;34.51;99881.09;6194706;28;20104;-71
2023/05/30 13:33:52;;;;;;;5.38;2.45;;;;;;;27.78;37.08;99879.66;6195955;28;20084;-71
2023/05/30 13:36:52;;;;;;;2.75;2.03;;;;;;;27.82;38.46;99884.41;6195753;28;20050;-71
2023/05/30 13:39:54;;;;;;;3.83;2.30;;;;;;;27.08;35.42;99882.81;6194870;28;20417;-71
2023/05/30 13:42:55;;;;;;;;;;;;;;;27.02;35.25;99886.31;6195405;28;20054;-71
2023/05/30 13:45:56;;;;;;;3.00;2.10;;;;;;;27.26;36.15;99882.22;6194457;28;19922;-70
2023/05/30 13:48:57;;;;;;;7.57;2.20;;;;;;;27.33;38.04;99881.19;6194270;28;20046;-71
2023/05/30 13:52:03;;;;;;;2.97;2.13;;;;;;;26.95;37.08;99875.59;6194490;28;20054;-72
2023/05/30 13:55:05;;;;;;;3.00;2.05;;;;;;;27.27;36.15;99876.66;6195479;28;20145;-71
2023/05/30 13:58:06;;;;;;;3.95;2.58;;;;;;;26.92;36.34;99878.69;6194196;28;20132;-70
2023/05/30 14:01:10;;;;;;;5.03;2.30;;;;;;;27.18;36.55;99877.03;6195372;28;20457;-71
2023/05/30 14:04:13;;;;;;;4.65;2.40;;;;;;;27.10;36.40;99876.22;6195235;28;20577;-71
2023/05/30 14:07:14;;;;;;;4.45;2.45;;;;;;;27.15;37.93;99880.97;6194137;28;20137;-71
2023/05/30 14:10:21;;;;;;;4.03;2.38;;;;;;;27.16;36.89;99879.09;6193811;28;20130;-71
2023/05/30 14:13:25;;;;;;;2.67;2.10;;;;;;;27.37;36.42;99889.66;6195261;28;20103;-71
2023/05/30 14:16:27;;;;;;;3.30;2.08;;;;;;;27.56;38.43;99879.91;6193924;28;20058;-71
2023/05/30 14:19:29;;;;;;;4.65;2.30;;;;;;;27.36;36.84;99887.97;6195284;28;20053;-71
2023/05/30 14:22:30;;;;;;;4.82;2.28;;;;;;;27.68;37.81;99882.78;6194826;28;20421;-72